Time;durP1;ratioP1;P1;durP2;ratioP2;P2;SDS_P1;SDS_P2;PMS_P1;PMS_P2;Temp;Humidity;BMP_temperature;BMP_pressure;BME280_temperature;BME280_humidity;BME280_pressure;Samples;Min_cycle;Max_cycle;Signal;HPM_P1;HPM_P2
2022/08/20 00:01:36;;;;;;;;;5.00;3.25;;;;;18.54;63.12;101041.19;4976660;28;45467;-74
2022/08/20 00:04:02;;;;;;;;;1.00;1.00;;;;;18.50;63.67;101044.94;4981652;28;45474;-75
2022/08/20 00:06:27;;;;;;;;;4.00;2.00;;;;;18.51;63.71;101043.09;4977387;28;45523;-75
2022/08/20 00:08:53;;;;;;;;;2.25;2.25;;;;;18.49;63.40;101043.19;4988422;28;45599;-75
2022/08/20 00:11:22;;;;;;;;;2.00;1.00;;;;;18.45;63.37;101038.94;4974995;28;46019;-76
2022/08/20 00:13:52;;;;;;;;;4.00;2.00;;;;;18.42;63.76;101036.41;4975972;28;45458;-76
2022/08/20 00:16:21;;;;;;;;;2.00;2.00;;;;;18.39;63.83;101034.72;4992273;28;45433;-74
2022/08/20 00:18:48;;;;;;;;;5.00;2.00;;;;;18.34;64.14;101038.53;4977808;28;45412;-74
2022/08/20 00:21:16;;;;;;;;;2.75;2.50;;;;;18.34;64.33;101033.19;4976962;28;46254;-75
2022/08/20 00:23:44;;;;;;;;;2.00;1.75;;;;;18.28;64.47;101024.50;4958398;28;45446;-75
2022/08/20 00:26:12;;;;;;;;;3.75;2.00;;;;;18.25;65.03;101026.44;4996379;28;45399;-75
2022/08/20 00:28:38;;;;;;;;;4.00;2.25;;;;;18.18;64.62;101022.31;4996573;28;45355;-76
2022/08/20 00:31:07;;;;;;;;;2.00;2.00;;;;;18.21;64.55;101033.72;4998897;28;45517;-77
2022/08/20 00:33:33;;;;;;;;;3.00;2.50;;;;;18.19;64.64;101046.31;4982356;28;45580;-76
2022/08/20 00:36:05;;;;;;;;;6.25;2.00;;;;;18.17;64.80;101037.47;4976497;28;45495;-74
2022/08/20 00:38:33;;;;;;;;;2.25;2.25;;;;;18.06;64.94;101034.41;4976351;28;45423;-75
2022/08/20 00:40:59;;;;;;;;;4.50;3.00;;;;;18.10;65.28;101041.38;4976112;28;45995;-75
2022/08/20 00:43:38;;;;;;;;;2.50;1.25;;;;;18.07;65.32;101037.03;4975670;28;45358;-75
2022/08/20 00:46:08;;;;;;;;;1.75;1.00;;;;;18.03;65.35;101037.22;4976464;28;45443;-75
2022/08/20 00:48:36;;;;;;;;;1.50;1.50;;;;;18.03;65.17;101043.44;4976758;28;45474;-74
2022/08/20 00:51:08;;;;;;;;;2.75;2.75;;;;;17.96;65.55;101030.41;4976901;28;45961;-75
2022/08/20 00:53:35;;;;;;;;;2.75;2.75;;;;;17.97;65.56;101041.03;4974894;28;45593;-75
2022/08/20 00:56:01;;;;;;;;;1.50;1.50;;;;;17.96;65.07;101038.44;4978102;28;45557;-76
2022/08/20 00:58:28;;;;;;;;;4.00;3.00;;;;;17.92;65.78;101038.56;4995757;28;45538;-75
2022/08/20 01:00:55;;;;;;;;;3.25;3.00;;;;;17.90;65.66;101031.53;4998752;28;45610;-75
2022/08/20 01:03:21;;;;;;;;;3.75;3.75;;;;;17.92;65.71;101037.69;4999145;28;45637;-76
2022/08/20 01:05:49;;;;;;;;;2.25;2.00;;;;;17.88;65.53;101036.91;4976555;28;45385;-75
2022/08/20 01:08:18;;;;;;;;;1.50;1.50;;;;;17.86;65.57;101040.59;4975857;28;45400;-76
2022/08/20 01:10:47;;;;;;;;;2.00;1.25;;;;;17.82;65.90;101031.84;4975397;28;46429;-77
2022/08/20 01:13:19;;;;;;;;;3.00;1.25;;;;;17.82;65.79;101036.31;4977005;28;45453;-74
2022/08/20 01:15:47;;;;;;;;;1.25;1.25;;;;;17.78;65.86;101043.63;4971922;28;45614;-76
2022/08/20 01:18:18;;;;;;;;;3.75;2.75;;;;;17.71;66.50;101028.75;4976043;28;45524;-76
2022/08/20 01:20:49;;;;;;;;;3.00;3.00;;;;;17.73;66.15;101029.56;4976080;28;45533;-76
2022/08/20 01:23:26;;;;;;;;;6.00;2.00;;;;;17.72;66.33;101030.50;4975187;28;45339;-75
2022/08/20 01:26:07;;;;;;;;;2.00;2.00;;;;;17.73;66.48;101026.88;4987845;28;45516;-76
2022/08/20 01:28:43;;;;;;;;;2.00;1.25;;;;;17.67;66.66;101016.44;4956598;28;45498;-75
2022/08/20 01:31:19;;;;;;;;;1.75;1.75;;;;;17.64;66.82;101024.59;4956154;28;45459;-76
2022/08/20 01:33:45;;;;;;;;;1.00;1.00;;;;;17.59;66.68;101028.34;4964577;28;45341;-75
2022/08/20 01:36:13;;;;;;;;;5.50;2.00;;;;;17.58;67.02;101031.97;4978438;28;45513;-75
2022/08/20 01:38:40;;;;;;;;;3.00;3.00;;;;;17.56;67.09;101041.81;4975631;28;45512;-76
2022/08/20 01:41:20;;;;;;;;;5.50;2.25;;;;;17.54;67.32;101038.34;4986804;28;45378;-75
2022/08/20 01:43:49;;;;;;;;;2.00;2.00;;;;;17.47;67.16;101034.19;4975263;28;45477;-74
2022/08/20 01:46:17;;;;;;;;;3.50;2.00;;;;;17.54;66.86;101049.03;4975873;28;45540;-76
2022/08/20 01:48:43;;;;;;;;;1.00;1.00;;;;;17.51;67.48;101049.19;4976292;28;45657;-75
2022/08/20 01:51:17;;;;;;;;;6.00;2.75;;;;;17.51;67.16;101054.53;4980781;28;46051;-75
2022/08/20 01:53:46;;;;;;;;;2.00;1.00;;;;;17.48;67.50;101049.31;4992516;28;45553;-76
2022/08/20 01:56:16;;;;;;;;;2.00;2.00;;;;;17.40;67.74;101044.28;4975738;28;45441;-75
2022/08/20 01:58:48;;;;;;;;;3.75;2.75;;;;;17.46;67.71;101056.53;4991471;28;45522;-76
2022/08/20 02:01:28;;;;;;;;;3.50;3.00;;;;;17.45;67.93;101059.25;4979083;28;45557;-75
2022/08/20 02:03:55;;;;;;;;;3.50;1.25;;;;;17.39;67.88;101050.53;4979659;28;45297;-74
2022/08/20 02:06:24;;;;;;;;;3.75;2.25;;;;;17.38;68.15;101058.63;4960104;28;45594;-74
2022/08/20 02:08:55;;;;;;;;;2.00;2.00;;;;;17.38;68.05;101058.63;4976051;28;45485;-76
2022/08/20 02:11:22;;;;;;;;;4.50;2.50;;;;;17.40;67.95;101067.47;4981317;28;45468;-76
2022/08/20 02:13:51;;;;;;;;;3.75;1.75;;;;;17.34;68.39;101065.00;4994771;28;45442;-75
2022/08/20 02:16:19;;;;;;;;;2.00;2.00;;;;;17.36;68.17;101071.19;4990374;28;45384;-76
2022/08/20 02:18:45;;;;;;;;;2.25;2.25;;;;;17.33;67.83;101065.97;4975132;28;45340;-76
2022/08/20 02:21:10;;;;;;;;;2.00;2.00;;;;;17.29;68.20;101069.69;4974280;28;46485;-75
2022/08/20 02:23:36;;;;;;;;;3.00;1.75;;;;;17.27;67.80;101060.88;4975413;28;45281;-75
2022/08/20 02:26:01;;;;;;;;;3.25;2.75;;;;;17.27;68.09;101071.56;4974031;28;45341;-74
2022/08/20 02:28:27;;;;;;;;;3.25;2.25;;;;;17.22;68.19;101072.59;4975976;28;45339;-75
2022/08/20 02:30:54;;;;;;;;;2.00;2.00;;;;;17.17;68.38;101061.25;4977627;28;45490;-76
2022/08/20 02:33:21;;;;;;;;;2.75;2.75;;;;;17.14;68.22;101061.38;4992483;28;45386;-76
2022/08/20 02:35:49;;;;;;;;;3.25;1.00;;;;;17.16;68.69;101063.97;4985221;28;45329;-75
2022/08/20 02:38:15;;;;;;;;;1.75;1.75;;;;;17.06;68.70;101058.13;4979110;28;45354;-75
2022/08/20 02:40:43;;;;;;;;;3.75;3.25;;;;;17.12;68.92;101071.22;4957289;28;45406;-75
2022/08/20 02:43:09;;;;;;;;;2.00;2.00;;;;;17.10;68.99;101067.75;4974440;28;45578;-76
2022/08/20 02:45:42;;;;;;;;;4.00;2.00;;;;;17.09;68.90;101067.81;4975468;28;45543;-75
2022/08/20 02:48:19;;;;;;;;;2.50;2.50;;;;;17.07;69.29;101069.69;4969057;28;45448;-75
2022/08/20 02:50:50;;;;;;;;;3.75;3.50;;;;;17.06;69.58;101068.78;4974749;28;46344;-75
2022/08/20 02:53:16;;;;;;;;;5.00;4.00;;;;;17.04;69.73;101070.66;4994487;28;45370;-75
2022/08/20 02:55:42;;;;;;;;;5.75;3.00;;;;;16.94;69.69;101063.94;4993936;28;45533;-75
2022/08/20 02:58:08;;;;;;;;;1.00;1.00;;;;;16.94;70.01;101070.13;4976789;28;45560;-76
2022/08/20 03:00:33;;;;;;;;;6.25;2.00;;;;;16.95;70.52;101079.91;5010707;28;47069;-75
2022/08/20 03:02:59;;;;;;;;;3.50;2.25;;;;;16.91;70.10;101074.72;4979528;28;45497;-76
2022/08/20 03:05:26;;;;;;;;;1.00;0.00;;;;;16.88;70.43;101070.38;4974448;28;45446;-76
2022/08/20 03:07:52;;;;;;;;;2.75;2.00;;;;;16.87;70.58;101085.53;4974459;28;45392;-76
2022/08/20 03:10:24;;;;;;;;;3.00;2.00;;;;;16.86;70.50;101072.22;4971693;28;45515;-74
2022/08/20 03:12:51;;;;;;;;;6.00;3.00;;;;;16.83;70.64;101062.50;4990621;28;45360;-74
2022/08/20 03:15:17;;;;;;;;;2.50;2.50;;;;;16.76;70.83;101065.47;4994348;28;45435;-75
2022/08/20 03:17:43;;;;;;;;;1.00;1.00;;;;;16.77;70.84;101072.56;4992499;28;45678;-75
2022/08/20 03:20:09;;;;;;;;;1.75;1.00;;;;;16.74;71.20;101076.22;4974826;28;46328;-75
2022/08/20 03:22:34;;;;;;;;;1.75;1.75;;;;;16.72;70.66;101070.06;4974862;28;45351;-76
2022/08/20 03:25:00;;;;;;;;;2.75;2.75;;;;;16.66;71.29;101070.31;4973168;28;45385;-75
2022/08/20 03:27:27;;;;;;;;;2.75;2.75;;;;;16.70;71.06;101077.25;4974165;28;45494;-74
2022/08/20 03:29:52;;;;;;;;;2.25;2.25;;;;;16.69;71.33;101070.19;4973254;28;46230;-75
2022/08/20 03:32:17;;;;;;;;;3.25;2.25;;;;;16.65;71.63;101071.22;4973710;28;45376;-77
2022/08/20 03:34:43;;;;;;;;;7.50;2.50;;;;;16.59;71.52;101060.78;4989520;28;45340;-76
2022/08/20 03:37:10;;;;;;;;;3.00;3.00;;;;;16.57;71.73;101068.84;4994765;28;45405;-76
2022/08/20 03:39:35;;;;;;;;;2.50;2.50;;;;;16.58;71.78;101070.59;4980685;28;45920;-75
2022/08/20 03:42:01;;;;;;;;;5.50;5.00;;;;;16.55;71.52;101065.38;4974403;28;45411;-75
2022/08/20 03:44:27;;;;;;;;;2.00;2.00;;;;;16.56;71.74;101064.44;4974303;28;45438;-75
2022/08/20 03:46:53;;;;;;;;;3.00;3.00;;;;;16.55;71.91;101069.81;5007047;28;45376;-76
2022/08/20 03:49:19;;;;;;;;;3.00;3.00;;;;;16.52;71.72;101079.69;4977257;28;45660;-75
2022/08/20 03:51:44;;;;;;;;;3.00;2.00;;;;;16.47;71.78;101073.66;4976665;28;45434;-75
2022/08/20 03:54:09;;;;;;;;;4.00;2.00;;;;;16.46;71.84;101073.72;4977478;28;45460;-76
2022/08/20 03:56:35;;;;;;;;;3.00;3.00;;;;;16.44;71.96;101073.78;4976942;28;45648;-75
2022/08/20 03:59:00;;;;;;;;;3.00;3.00;;;;;16.36;72.09;101077.63;4992580;28;46117;-75
2022/08/20 04:01:25;;;;;;;;;4.50;3.00;;;;;16.37;72.26;101074.03;5002779;28;45347;-76
2022/08/20 04:03:52;;;;;;;;;3.00;2.00;;;;;16.32;72.11;101076.88;5000017;28;45384;-75
2022/08/20 04:06:18;;;;;;;;;4.75;4.00;;;;;16.33;72.17;101082.13;4990183;28;45674;-74
2022/08/20 04:08:43;;;;;;;;;3.75;2.25;;;;;16.30;71.81;101078.72;4976076;28;46278;-75
2022/08/20 04:11:09;;;;;;;;;5.75;1.75;;;;;16.25;72.06;101076.22;4975774;28;45431;-75
2022/08/20 04:13:34;;;;;;;;;3.00;2.00;;;;;16.26;72.13;101082.41;4977066;28;45513;-75
2022/08/20 04:16:02;;;;;;;;;2.50;2.50;;;;;16.23;72.14;101083.41;4977305;28;45460;-75
2022/08/20 04:18:28;;;;;;;;;6.25;3.00;;;;;16.20;72.21;101083.53;4975342;28;45547;-75
2022/08/20 04:20:54;;;;;;;;;3.25;3.25;;;;;16.17;72.14;101078.31;4976580;28;45421;-74
2022/08/20 04:23:20;;;;;;;;;2.25;2.25;;;;;16.16;72.24;101076.56;4977762;28;45522;-75
2022/08/20 04:25:46;;;;;;;;;2.25;2.00;;;;;16.14;72.37;101078.41;4976337;28;45392;-76
2022/08/20 04:28:20;;;;;;;;;3.25;2.00;;;;;16.14;72.81;101083.75;4975808;28;45328;-75
2022/08/20 04:30:46;;;;;;;;;2.00;2.00;;;;;16.10;72.37;101080.28;4982367;28;45467;-75
2022/08/20 04:33:11;;;;;;;;;2.00;2.00;;;;;16.07;72.49;101076.88;4982656;28;45365;-75
2022/08/20 04:35:37;;;;;;;;;3.25;3.00;;;;;16.06;72.64;101086.66;4980754;28;45485;-75
2022/08/20 04:38:08;;;;;;;;;3.50;3.50;;;;;16.04;72.52;101087.66;4975258;28;45325;-75
2022/08/20 04:40:52;;;;;;;;;2.00;2.00;;;;;16.03;72.58;101085.91;4976081;28;45357;-75
2022/08/20 04:43:21;;;;;;;;;1.25;0.25;;;;;16.02;72.48;101090.38;4976590;28;45426;-76
2022/08/20 04:45:47;;;;;;;;;3.50;2.00;;;;;15.94;72.82;101071.09;4975742;28;45641;-75
2022/08/20 04:48:12;;;;;;;;;1.75;1.75;;;;;15.99;72.47;101085.16;4975441;28;46373;-77
2022/08/20 04:50:40;;;;;;;;;4.75;3.00;;;;;15.91;72.51;101071.19;4976218;28;45422;-74
2022/08/20 04:53:09;;;;;;;;;2.00;2.00;;;;;15.96;72.44;101075.44;4976702;28;45477;-75
2022/08/20 04:55:38;;;;;;;;;2.25;2.25;;;;;16.01;72.46;101083.28;4976062;28;45465;-75
2022/08/20 04:58:06;;;;;;;;;2.00;2.00;;;;;16.04;72.49;101087.66;4983372;28;46021;-76
2022/08/20 05:00:32;;;;;;;;;2.00;2.00;;;;;16.06;72.77;101091.97;4975161;28;45455;-75
2022/08/20 05:02:57;;;;;;;;;3.50;1.75;;;;;16.05;71.96;101086.72;4976009;28;45435;-75
2022/08/20 05:05:23;;;;;;;;;2.25;2.25;;;;;16.16;71.73;101089.88;4976142;28;45466;-75
2022/08/20 05:07:49;;;;;;;;;3.00;3.00;;;;;16.31;71.30;101097.34;4996065;28;45461;-74
2022/08/20 05:10:17;;;;;;;;;5.75;2.50;;;;;16.51;71.10;101112.63;4955799;28;45476;-75
2022/08/20 05:12:44;;;;;;;;;5.25;3.75;;;;;16.73;70.19;101109.16;4956343;28;45448;-75
2022/08/20 05:15:10;;;;;;;;;2.25;2.00;;;;;16.92;68.98;101103.19;4957095;28;45608;-75
2022/08/20 05:17:37;;;;;;;;;1.75;1.75;;;;;17.22;68.19;101101.13;4963338;28;46268;-73
2022/08/20 05:20:05;;;;;;;;;2.75;2.25;;;;;17.57;67.36;101102.38;4980073;28;45431;-76
2022/08/20 05:22:31;;;;;;;;;3.00;3.00;;;;;17.88;66.24;101093.06;4978082;28;45411;-75
2022/08/20 05:24:58;;;;;;;;;2.00;2.00;;;;;18.31;64.60;101106.44;4975321;28;45400;-76
2022/08/20 05:27:25;;;;;;;;;5.00;2.75;;;;;18.75;63.83;101106.25;4974320;28;45440;-77
2022/08/20 05:30:12;;;;;;;;;3.75;3.00;;;;;19.24;61.96;101108.47;4991079;28;45534;-75
2022/08/20 05:32:37;;;;;;;;;2.50;2.50;;;;;19.80;60.38;101101.28;4994777;28;45378;-76
2022/08/20 05:35:09;;;;;;;;;4.25;2.50;;;;;20.33;58.54;101112.91;4995435;28;45388;-75
2022/08/20 05:37:42;;;;;;;;;6.00;3.00;;;;;20.79;57.51;101117.66;4987291;28;47050;-75
2022/08/20 05:40:13;;;;;;;;;2.00;2.00;;;;;21.26;55.48;101103.41;4984043;28;45340;-76
2022/08/20 05:42:38;;;;;;;;;2.00;2.00;;;;;21.75;54.28;101102.41;4994474;28;45543;-75
2022/08/20 05:45:06;;;;;;;;;4.75;1.00;;;;;22.27;53.37;101106.50;4994880;28;45525;-75
2022/08/20 05:47:31;;;;;;;;;2.00;1.75;;;;;22.76;51.91;101107.16;4982741;28;46166;-75
2022/08/20 05:49:57;;;;;;;;;2.25;2.25;;;;;23.24;50.38;101108.59;4975824;28;45444;-76
2022/08/20 05:52:22;;;;;;;;;1.50;1.50;;;;;23.74;49.15;101111.59;4975110;28;45337;-76
2022/08/20 05:54:49;;;;;;;;;1.25;1.25;;;;;24.16;47.89;101110.63;4974601;28;45370;-75
2022/08/20 05:57:18;;;;;;;;;1.75;1.75;;;;;24.69;46.54;101105.19;4974005;28;46165;-76
2022/08/20 05:59:44;;;;;;;;;2.25;1.50;;;;;25.08;45.04;101114.09;4982407;28;45634;-76
2022/08/20 06:04:56;;;;;;;;;2.00;2.00;;;;;26.08;43.81;101108.53;4972289;28;45459;-75
2022/08/20 06:07:22;;;;;;;;;1.00;1.00;;;;;26.49;42.26;101112.56;4971552;28;46535;-75
2022/08/20 06:09:47;;;;;;;;;2.75;2.75;;;;;26.83;42.18;101109.91;4971122;28;45499;-75
2022/08/20 06:12:13;;;;;;;;;1.00;1.00;;;;;27.22;40.66;101113.06;4971938;28;45424;-76
2022/08/20 06:14:39;;;;;;;;;2.75;2.75;;;;;27.63;40.37;101114.22;4972691;28;45412;-75
2022/08/20 06:17:11;;;;;;;;;2.50;2.50;;;;;28.11;39.13;101113.78;4970973;28;46067;-75
2022/08/20 06:19:37;;;;;;;;;1.25;1.25;;;;;28.56;38.84;101117.22;4970804;28;45568;-76
2022/08/20 06:22:04;;;;;;;;;3.00;3.00;;;;;28.96;37.53;101108.28;4971546;28;45633;-76
2022/08/20 06:24:30;;;;;;;;;5.00;4.00;;;;;29.28;37.45;101116.28;4971963;28;45480;-76
2022/08/20 06:26:58;;;;;;;;;1.50;1.50;;;;;29.50;36.31;101104.28;4972069;28;46103;-77
2022/08/20 06:29:24;;;;;;;;;7.00;3.75;;;;;29.83;35.80;101113.06;4961289;28;45428;-76
2022/08/20 06:31:50;;;;;;;;;2.50;2.50;;;;;30.09;34.79;101107.91;4972401;28;45450;-76
2022/08/20 06:34:17;;;;;;;;;3.00;2.00;;;;;30.48;34.88;101112.44;4987998;28;45670;-75
2022/08/20 06:36:45;;;;;;;;;2.50;2.00;;;;;30.93;33.68;101106.25;4972108;28;45405;-75
2022/08/20 06:39:13;;;;;;;;;1.25;1.25;;;;;31.18;33.45;101114.75;4965638;28;45567;-85
2022/08/20 06:41:38;;;;;;;;;4.50;3.00;;;;;31.56;33.10;101112.81;4971760;28;45536;-73
2022/08/20 06:44:05;;;;;;;;;3.00;3.00;;;;;31.95;32.95;101117.94;4974604;28;45562;-73
2022/08/20 06:46:31;;;;;;;;;2.25;2.00;;;;;32.38;31.71;101108.03;4974477;28;45316;-74
2022/08/20 06:48:58;;;;;;;;;5.25;3.50;;;;;32.90;31.31;101109.03;4982673;28;45557;-84
2022/08/20 06:51:23;;;;;;;;;3.50;2.00;;;;;33.12;30.55;101102.97;4974494;28;45380;-73
2022/08/20 06:53:48;;;;;;;;;3.50;2.00;;;;;33.45;30.50;101111.31;4974982;28;45379;-74
2022/08/20 06:56:14;;;;;;;;;2.25;1.75;;;;;33.59;29.89;101119.91;5005164;28;48091;-74
2022/08/20 06:58:39;;;;;;;;;4.00;2.25;;;;;33.92;29.91;101111.72;4996604;28;45550;-74
2022/08/20 07:01:06;;;;;;;;;2.00;2.00;;;;;34.17;29.27;101116.16;4973722;28;45583;-74
2022/08/20 07:03:32;;;;;;;;;4.00;2.75;;;;;34.40;29.08;101112.72;4974839;28;45514;-74
2022/08/20 07:05:58;;;;;;;;;1.00;1.00;;;;;34.66;28.26;101111.66;4974172;28;45474;-75
2022/08/20 07:08:23;;;;;;;;;2.00;2.00;;;;;35.02;27.51;101109.31;4973691;28;45512;-74
2022/08/20 07:10:49;;;;;;;;;2.50;1.25;;;;;35.27;28.06;101108.34;4972601;28;45694;-75
2022/08/20 07:13:15;;;;;;;;;2.00;2.00;;;;;35.32;28.17;101108.66;4972957;28;45476;-75
2022/08/20 07:15:42;;;;;;;;;1.50;1.25;;;;;35.62;27.13;101097.81;4974524;28;45499;-74
2022/08/20 07:18:10;;;;;;;;;3.50;2.50;;;;;35.86;26.98;101094.91;4975873;28;45427;-74
2022/08/20 07:20:39;;;;;;;;;3.50;2.00;;;;;35.89;26.93;101108.28;4979481;28;45514;-75
2022/08/20 07:23:05;;;;;;;;;2.75;1.75;;;;;36.02;26.14;101104.06;4990434;28;45530;-76
2022/08/20 07:25:32;;;;;;;;;1.00;1.00;;;;;35.89;26.51;101100.03;4985772;28;46113;-75
2022/08/20 07:28:22;;;;;;;;;1.25;1.25;;;;;36.19;27.05;101104.75;4984036;28;45517;-76
2022/08/20 07:33:52;;;;;;;;;3.00;3.00;;;;;36.49;26.53;101115.81;4961205;28;45502;-75
2022/08/20 07:36:18;;;;;;;;;2.00;1.00;;;;;36.76;26.17;101117.97;4964465;28;46024;-73
2022/08/20 07:38:49;;;;;;;;;1.50;1.00;;;;;36.97;26.65;101119.94;4964387;28;45514;-74
2022/08/20 07:41:15;;;;;;;;;0.00;0.00;;;;;37.37;25.18;101118.72;4958673;28;45557;-77
2022/08/20 07:43:45;;;;;;;;;2.50;2.50;;;;;37.62;25.85;101117.28;4962079;28;45607;-90
2022/08/20 07:46:13;;;;;;;;;2.25;1.25;;;;;37.65;24.64;101122.41;4958531;28;45504;-75
2022/08/20 07:48:45;;;;;;;;;1.50;1.50;;;;;37.79;24.46;101128.09;4960367;28;45567;-74
2022/08/20 07:51:11;;;;;;;;;1.75;1.50;;;;;37.84;25.38;101133.91;4969587;28;45493;-74
2022/08/20 07:53:38;;;;;;;;;2.50;1.00;;;;;38.02;24.92;101133.38;4940695;28;45513;-74
2022/08/20 07:56:09;;;;;;;;;1.00;1.00;;;;;38.17;25.45;101131.44;4957709;28;45543;-75
2022/08/20 07:58:37;;;;;;;;;2.50;1.25;;;;;38.18;23.67;101115.75;4956843;28;45495;-74
2022/08/20 08:01:04;;;;;;;;;1.00;0.25;;;;;38.34;24.56;101137.53;4958607;28;45507;-75
2022/08/20 08:03:31;;;;;;;;;3.00;3.00;;;;;38.52;24.66;101144.41;4959632;28;45630;-74
2022/08/20 08:05:56;;;;;;;;;2.00;2.00;;;;;38.64;24.00;101131.78;4979284;28;45428;-75
2022/08/20 08:08:25;;;;;;;;;2.00;2.00;;;;;38.64;24.65;101123.50;4987063;28;45570;-74
2022/08/20 08:10:56;;;;;;;;;0.75;0.75;;;;;38.94;24.73;101126.00;4978559;28;45435;-74
2022/08/20 08:13:26;;;;;;;;;0.25;0.25;;;;;39.00;23.37;101129.88;4978816;28;45524;-75
2022/08/20 08:15:58;;;;;;;;;1.25;1.25;;;;;39.02;24.03;101128.56;4979214;28;45454;-75
2022/08/20 08:18:29;;;;;;;;;4.00;1.50;;;;;39.03;23.42;101129.44;4977431;28;45500;-75
2022/08/20 08:20:56;;;;;;;;;0.00;0.00;;;;;39.17;23.44;101131.22;4983921;28;45460;-74
2022/08/20 08:23:22;;;;;;;;;0.75;0.50;;;;;39.03;23.27;101134.97;4973370;28;45435;-74
2022/08/20 08:25:51;;;;;;;;;2.75;2.75;;;;;39.10;23.88;101133.13;4978935;28;45475;-74
2022/08/20 08:28:18;;;;;;;;;2.00;1.00;;;;;39.14;24.10;101139.09;4978422;28;45486;-75
2022/08/20 08:30:45;;;;;;;;;1.00;0.00;;;;;39.27;23.29;101136.38;4980337;28;45430;-74
2022/08/20 08:33:31;;;;;;;;;2.75;0.00;;;;;39.28;24.83;101143.59;4975787;28;45498;-75
2022/08/20 08:36:11;;;;;;;;;2.50;2.00;;;;;39.36;23.83;101132.38;4976610;28;45467;-74
2022/08/20 08:38:38;;;;;;;;;5.00;1.50;;;;;39.57;22.78;101147.09;4975411;28;46353;-75
2022/08/20 08:41:15;;;;;;;;;1.00;1.00;;;;;39.31;22.91;101142.31;4975222;28;45439;-74
2022/08/20 08:43:44;;;;;;;;;1.75;1.75;;;;;39.29;22.73;101133.41;4979052;28;45614;-78
2022/08/20 08:46:11;;;;;;;;;1.00;1.00;;;;;39.63;22.92;101137.97;4984434;28;45521;-81
2022/08/20 08:48:44;;;;;;;;;1.50;1.00;;;;;39.87;22.03;101133.75;4988090;28;45423;-82
2022/08/20 08:51:15;;;;;;;;;1.00;1.00;;;;;39.99;22.60;101134.00;5011207;28;45319;-86
2022/08/20 08:53:49;;;;;;;;;3.25;0.75;;;;;39.93;23.01;101123.75;5016970;28;44799;-80
2022/08/20 08:56:15;;;;;;;;;0.00;0.00;;;;;39.98;22.84;101132.25;4977035;28;45630;-77
2022/08/20 08:58:43;;;;;;;;;0.75;0.75;;;;;40.01;23.34;101126.38;4975405;28;45475;-77
2022/08/20 09:01:15;;;;;;;;;2.75;1.00;;;;;39.87;21.64;101143.97;5009925;28;45456;-74
2022/08/20 09:03:45;;;;;;;;;2.75;2.00;;;;;39.01;22.52;101135.19;4975156;28;45480;-75
2022/08/20 09:06:17;;;;;;;;;2.25;0.50;;;;;38.36;23.24;101135.41;4961302;28;46106;-75
2022/08/20 09:08:51;;;;;;;;;0.75;0.75;;;;;38.58;25.08;101140.84;4982060;28;45475;-74
2022/08/20 09:11:19;;;;;;;;;4.00;2.00;;;;;38.39;24.55;101140.50;4975482;28;45573;-73
2022/08/20 09:13:44;;;;;;;;;1.50;0.50;;;;;37.59;23.91;101136.97;4982244;28;45391;-75
2022/08/20 09:16:11;;;;;;;;;2.00;1.00;;;;;37.11;24.63;101142.09;4992117;28;46151;-74
2022/08/20 09:18:37;;;;;;;;;2.25;1.75;;;;;37.25;24.63;101127.50;4991972;28;45518;-73
2022/08/20 09:21:03;;;;;;;;;1.25;1.00;;;;;37.08;25.94;101126.84;4978256;28;45514;-74
2022/08/20 09:23:28;;;;;;;;;1.00;1.00;;;;;36.46;25.27;101125.31;4973849;28;45640;-73
2022/08/20 09:25:54;;;;;;;;;3.00;2.00;;;;;35.95;26.82;101120.44;4975426;28;46027;-73
2022/08/20 09:28:19;;;;;;;;;2.00;2.00;;;;;35.88;26.50;101141.44;4974694;28;45465;-75
2022/08/20 09:30:44;;;;;;;;;1.00;1.00;;;;;35.33;27.02;101132.34;4975650;28;45316;-74
2022/08/20 09:33:10;;;;;;;;;3.00;2.50;;;;;34.77;27.97;101136.00;4977621;28;45479;-75
2022/08/20 09:35:36;;;;;;;;;1.75;1.75;;;;;34.13;29.15;101125.78;4993999;28;45694;-75
2022/08/20 09:38:02;;;;;;;;;1.25;1.25;;;;;33.60;29.00;101138.03;4976210;28;45447;-73
2022/08/20 09:40:28;;;;;;;;;2.25;1.00;;;;;33.17;29.64;101124.38;4971716;28;45443;-75
2022/08/20 09:42:53;;;;;;;;;1.75;1.00;;;;;33.49;30.06;101138.38;4990150;28;45496;-74
2022/08/20 09:45:19;;;;;;;;;1.00;1.00;;;;;34.16;30.10;101144.63;4986341;28;45423;-74
2022/08/20 09:47:45;;;;;;;;;0.75;0.75;;;;;34.80;27.44;101127.41;4984310;28;45415;-74
2022/08/20 09:50:10;;;;;;;;;0.25;0.25;;;;;35.38;25.81;101129.94;4980835;28;45558;-76
2022/08/20 09:52:40;;;;;;;;;1.00;1.00;;;;;35.91;26.14;101128.19;4981825;28;45319;-75
2022/08/20 09:55:21;;;;;;;;;2.00;2.00;;;;;36.37;26.41;101135.53;4984668;28;45509;-75
2022/08/20 09:57:48;;;;;;;;;0.50;0.50;;;;;36.69;25.10;101127.97;5015362;28;45455;-75
2022/08/20 10:00:14;;;;;;;;;2.25;1.00;;;;;37.04;24.19;101131.03;4982252;28;45432;-75
2022/08/20 10:02:40;;;;;;;;;2.75;1.00;;;;;37.32;23.10;101122.06;4982884;28;45610;-75
2022/08/20 10:05:06;;;;;;;;;1.25;1.00;;;;;37.48;22.84;101124.56;4984223;28;45437;-74
2022/08/20 10:07:33;;;;;;;;;0.25;0.25;;;;;37.90;23.30;101112.91;4983240;28;45406;-75
2022/08/20 10:09:59;;;;;;;;;1.00;0.00;;;;;38.28;21.78;101116.25;4984957;28;45542;-75
2022/08/20 10:12:24;;;;;;;;;3.00;1.75;;;;;38.26;22.21;101118.34;4975196;28;45388;-74
2022/08/20 10:14:49;;;;;;;;;3.00;1.00;;;;;38.08;23.12;101112.44;4974771;28;46088;-74
2022/08/20 10:17:15;;;;;;;;;1.75;1.00;;;;;38.03;22.82;101118.56;4974764;28;45425;-74
2022/08/20 10:19:41;;;;;;;;;2.50;2.00;;;;;38.16;22.53;101102.13;4972804;28;45757;-75
2022/08/20 10:22:07;;;;;;;;;0.00;0.00;;;;;38.33;22.83;101113.72;4974856;28;45395;-74
2022/08/20 10:24:33;;;;;;;;;1.00;1.00;;;;;38.64;22.47;101114.38;4974570;28;46093;-76
2022/08/20 10:27:00;;;;;;;;;1.00;1.00;;;;;38.59;21.54;101103.06;4974987;28;45491;-74
2022/08/20 10:29:26;;;;;;;;;1.50;1.50;;;;;38.73;21.34;101108.47;4980209;28;45526;-76
2022/08/20 10:31:54;;;;;;;;;3.25;2.25;;;;;38.68;21.44;101099.97;4974886;28;45515;-76
2022/08/20 10:34:44;;;;;;;;;1.25;0.25;;;;;38.77;22.30;101097.88;4973703;28;45505;-76
2022/08/20 10:37:14;;;;;;;;;0.75;0.75;;;;;38.81;20.55;101090.03;4974378;28;45507;-76
2022/08/20 10:39:39;;;;;;;;;1.00;1.00;;;;;38.72;20.54;101098.50;4976059;28;45470;-76
2022/08/20 10:42:07;;;;;;;;;1.00;1.00;;;;;37.81;20.86;101098.41;4981874;28;45426;-76
2022/08/20 10:44:33;;;;;;;;;1.00;1.00;;;;;37.28;21.97;101105.06;4973549;28;45422;-75
2022/08/20 10:47:13;;;;;;;;;2.00;1.00;;;;;37.28;23.43;101107.81;4973541;28;45416;-74
2022/08/20 10:49:38;;;;;;;;;0.25;0.25;;;;;37.34;22.02;101103.44;5003382;28;45643;-75
2022/08/20 10:52:04;;;;;;;;;0.75;0.75;;;;;37.31;23.06;101103.84;4976879;28;45502;-74
2022/08/20 10:54:29;;;;;;;;;0.00;0.00;;;;;37.37;23.00;101096.69;4981792;28;46063;-75
2022/08/20 10:56:54;;;;;;;;;0.50;0.50;;;;;37.23;21.89;101102.06;4983036;28;45541;-76
2022/08/20 10:59:20;;;;;;;;;2.00;0.75;;;;;37.04;23.36;101086.13;4983671;28;45391;-74
2022/08/20 11:01:45;;;;;;;;;1.75;1.50;;;;;37.13;23.57;101096.81;4980787;28;45737;-77
2022/08/20 11:04:10;;;;;;;;;1.00;1.00;;;;;37.11;21.95;101098.03;4981101;28;45511;-74
2022/08/20 11:06:36;;;;;;;;;2.00;1.25;;;;;36.98;22.66;101096.84;4984912;28;45430;-75
2022/08/20 11:09:01;;;;;;;;;2.50;0.50;;;;;37.13;22.48;101096.81;4983098;28;45749;-74
2022/08/20 11:11:26;;;;;;;;;4.25;2.00;;;;;37.20;23.07;101102.41;4981217;28;45616;-74
2022/08/20 11:13:52;;;;;;;;;2.50;1.25;;;;;37.01;22.41;101095.59;4979375;28;45518;-78
2022/08/20 11:16:17;;;;;;;;;4.00;1.25;;;;;36.69;23.08;101099.63;4971521;28;52843;-76
2022/08/20 11:18:42;;;;;;;;;3.00;2.00;;;;;36.77;22.83;101103.13;4973783;28;45375;-74
2022/08/20 11:21:08;;;;;;;;;3.50;2.00;;;;;36.88;23.22;101104.56;4973295;28;45668;-79
2022/08/20 11:23:33;;;;;;;;;1.50;1.00;;;;;36.93;22.71;101104.84;4975159;28;46100;-75
2022/08/20 11:25:58;;;;;;;;;2.00;2.00;;;;;36.99;23.34;101095.81;4973135;28;45384;-75
2022/08/20 11:28:24;;;;;;;;;1.25;1.25;;;;;36.85;22.05;101102.16;4973801;28;45377;-75
2022/08/20 11:30:49;;;;;;;;;0.00;0.00;;;;;36.82;21.75;101102.56;4973453;28;45583;-76
2022/08/20 11:33:15;;;;;;;;;1.25;1.25;;;;;36.85;22.16;101099.41;4978593;28;46311;-76